createdAt,value
2018-04-17T00:00:10.990Z,1016.32
2018-04-17T00:01:10.973Z,1016.34
2018-04-17T00:02:10.956Z,1016.36
2018-04-17T00:03:10.936Z,1016.38
2018-04-17T00:04:10.929Z,1016.35
2018-04-17T00:05:10.901Z,1016.38
2018-04-17T00:06:10.884Z,1016.36
2018-04-17T00:07:10.871Z,1016.35
2018-04-17T00:08:10.849Z,1016.35
2018-04-17T00:09:10.831Z,1016.39
2018-04-17T00:10:10.825Z,1016.39
2018-04-17T00:11:10.803Z,1016.40
2018-04-17T00:12:10.783Z,1016.40
2018-04-17T00:13:10.768Z,1016.38
2018-04-17T00:14:10.761Z,1016.40
2018-04-17T00:15:10.741Z,1016.38
2018-04-17T00:16:10.716Z,1016.43
2018-04-17T00:17:10.697Z,1016.44
2018-04-17T00:18:10.735Z,1016.41
2018-04-17T00:19:10.662Z,1016.44
2018-04-17T00:20:10.643Z,1016.43
2018-04-17T00:21:10.626Z,1016.44
2018-04-17T00:22:10.610Z,1016.45
2018-04-17T00:23:10.592Z,1016.48
2018-04-17T00:24:10.576Z,1016.47
2018-04-17T00:25:10.555Z,1016.48
2018-04-17T00:26:10.539Z,1016.48
2018-04-17T00:27:10.526Z,1016.49
2018-04-17T00:28:10.505Z,1016.50
2018-04-17T00:29:10.487Z,1016.50
2018-04-17T00:30:10.470Z,1016.48
2018-04-17T00:31:10.577Z,1016.51
2018-04-17T00:32:10.435Z,1016.47
2018-04-17T00:33:10.421Z,1016.46
2018-04-17T00:34:10.419Z,1016.45
2018-04-17T00:35:10.383Z,1016.47
2018-04-17T00:36:10.365Z,1016.51
2018-04-17T00:37:10.350Z,1016.46
2018-04-17T00:38:10.334Z,1016.48
2018-04-17T00:39:10.312Z,1016.46
2018-04-17T00:40:10.298Z,1016.52
2018-04-17T00:41:10.283Z,1016.50
2018-04-17T00:42:10.265Z,1016.52
2018-04-17T00:43:10.243Z,1016.47
2018-04-17T00:44:10.226Z,1016.55
2018-04-17T00:45:10.213Z,1016.49
2018-04-17T00:46:10.203Z,1016.51
2018-04-17T00:47:10.176Z,1016.51
2018-04-17T00:48:10.207Z,1016.53
2018-04-17T00:49:10.145Z,1016.52
2018-04-17T00:50:10.128Z,1016.53
2018-04-17T00:51:10.106Z,1016.50
2018-04-17T00:52:10.094Z,1016.55
2018-04-17T00:53:10.136Z,1016.56
2018-04-17T00:54:10.057Z,1016.59
2018-04-17T00:55:10.036Z,1016.58
2018-04-17T00:56:10.024Z,1016.56
2018-04-17T00:57:10.005Z,1016.57
2018-04-17T00:58:09.985Z,1016.61
2018-04-17T00:59:09.967Z,1016.64
2018-04-17T01:00:09.959Z,1016.67
2018-04-17T01:01:10.037Z,1016.63
2018-04-17T01:02:09.916Z,1016.64
2018-04-17T01:03:09.909Z,1016.67
2018-04-17T01:04:09.883Z,1016.68
2018-04-17T01:05:09.864Z,1016.70
2018-04-17T01:06:09.855Z,1016.72
2018-04-17T01:07:09.834Z,1016.74
2018-04-17T01:08:09.809Z,1016.73
2018-04-17T01:09:09.793Z,1016.74
2018-04-17T01:10:09.782Z,1016.74
2018-04-17T01:11:09.760Z,1016.74
2018-04-17T01:12:09.739Z,1016.74
2018-04-17T01:13:09.718Z,1016.76
2018-04-17T01:14:09.704Z,1016.74
2018-04-17T01:15:09.687Z,1016.73
2018-04-17T01:16:09.669Z,1016.76
2018-04-17T01:17:09.652Z,1016.77
2018-04-17T01:18:09.633Z,1016.81
2018-04-17T01:19:09.616Z,1016.78
2018-04-17T01:20:09.597Z,1016.80
2018-04-17T01:21:09.576Z,1016.81
2018-04-17T01:22:09.561Z,1016.78
2018-04-17T01:23:09.543Z,1016.80
2018-04-17T01:24:09.524Z,1016.82
2018-04-17T01:25:09.507Z,1016.83
2018-04-17T01:26:09.496Z,1016.86
2018-04-17T01:27:09.471Z,1016.84
2018-04-17T01:28:09.453Z,1016.86
2018-04-17T01:29:09.442Z,1016.87
2018-04-17T01:30:09.417Z,1016.88
2018-04-17T01:31:09.399Z,1016.87
2018-04-17T01:32:09.390Z,1016.84
2018-04-17T01:33:09.363Z,1016.86
2018-04-17T01:34:09.353Z,1016.89
2018-04-17T01:35:09.328Z,1016.92
2018-04-17T01:36:09.379Z,1016.93
2018-04-17T01:37:09.292Z,1016.95
2018-04-17T01:38:09.274Z,1016.97
2018-04-17T01:39:09.267Z,1016.98
2018-04-17T01:40:09.237Z,1016.98
2018-04-17T01:41:09.218Z,1016.98
2018-04-17T01:42:09.204Z,1017.02
2018-04-17T01:43:09.183Z,1017.00
2018-04-17T01:44:09.168Z,1017.00
2018-04-17T01:45:09.147Z,1017.03
2018-04-17T01:46:09.130Z,1017.02
2018-04-17T01:47:09.112Z,1017.02
2018-04-17T01:48:09.098Z,1017.00
2018-04-17T01:49:09.077Z,1017.02
2018-04-17T01:50:09.061Z,1017.04
2018-04-17T01:51:09.043Z,1017.04
2018-04-17T01:52:09.022Z,1017.04
2018-04-17T01:53:09.009Z,1017.04
2018-04-17T01:54:08.989Z,1017.06
2018-04-17T01:55:08.971Z,1017.02
2018-04-17T01:56:08.967Z,1017.04
2018-04-17T01:57:08.945Z,1017.05
2018-04-17T01:58:08.918Z,1017.01
2018-04-17T01:59:08.898Z,1017.04
2018-04-17T02:00:08.881Z,1017.01
2018-04-17T02:01:08.867Z,1017.01
2018-04-17T02:02:08.850Z,1017.00
2018-04-17T02:03:08.951Z,1016.98
2018-04-17T02:04:08.809Z,1016.98
2018-04-17T02:05:08.792Z,1016.98
2018-04-17T02:06:08.886Z,1016.96
2018-04-17T02:07:08.760Z,1017.00
2018-04-17T02:08:08.749Z,1016.99
2018-04-17T02:09:08.724Z,1017.00
2018-04-17T02:10:08.701Z,1017.00
2018-04-17T02:11:08.687Z,1017.02
2018-04-17T02:12:08.668Z,1017.01
2018-04-17T02:13:08.652Z,1017.03
2018-04-17T02:14:08.629Z,1016.98
2018-04-17T02:15:08.612Z,1016.98
2018-04-17T02:16:08.593Z,1016.98
2018-04-17T02:17:08.578Z,1017.01
2018-04-17T02:18:08.568Z,1017.00
2018-04-17T02:19:08.544Z,1017.03
2018-04-17T02:20:08.520Z,1017.05
2018-04-17T02:21:08.502Z,1017.07
2018-04-17T02:22:08.637Z,1017.11
2018-04-17T02:23:08.468Z,1017.09
2018-04-17T02:24:08.451Z,1017.12
2018-04-17T02:25:08.482Z,1017.09
2018-04-17T02:26:08.411Z,1017.12
2018-04-17T02:27:08.393Z,1017.10
2018-04-17T02:28:08.393Z,1017.10
2018-04-17T02:29:08.375Z,1017.12
2018-04-17T02:30:08.339Z,1017.12
2018-04-17T02:31:08.320Z,1017.11
2018-04-17T02:32:08.312Z,1017.16
2018-04-17T02:33:08.283Z,1017.20
2018-04-17T02:34:08.266Z,1017.21
2018-04-17T02:35:08.249Z,1017.18
2018-04-17T02:36:08.229Z,1017.23
2018-04-17T02:37:08.211Z,1017.25
2018-04-17T02:38:08.272Z,1017.26
2018-04-17T02:39:08.177Z,1017.25
2018-04-17T02:40:08.159Z,1017.31
2018-04-17T02:41:08.141Z,1017.30
2018-04-17T02:42:08.120Z,1017.29
2018-04-17T02:43:08.101Z,1017.35
2018-04-17T02:44:08.085Z,1017.37
2018-04-17T02:45:08.065Z,1017.38
2018-04-17T02:46:08.064Z,1017.35
2018-04-17T02:47:08.031Z,1017.40
2018-04-17T02:48:08.019Z,1017.39
2018-04-17T02:49:07.994Z,1017.40
2018-04-17T02:50:07.974Z,1017.42
2018-04-17T02:51:07.954Z,1017.44
2018-04-17T02:52:07.937Z,1017.43
2018-04-17T02:53:07.915Z,1017.45
2018-04-17T02:54:07.899Z,1017.44
2018-04-17T02:55:07.883Z,1017.41
2018-04-17T02:56:07.863Z,1017.41
2018-04-17T02:57:07.843Z,1017.41
2018-04-17T02:58:07.824Z,1017.42
2018-04-17T02:59:07.807Z,1017.38
2018-04-17T03:00:07.788Z,1017.40
2018-04-17T03:01:07.772Z,1017.39
2018-04-17T03:02:07.751Z,1017.37
2018-04-17T03:03:07.734Z,1017.43
2018-04-17T03:04:07.713Z,1017.37
2018-04-17T03:05:07.716Z,1017.36
2018-04-17T03:06:07.680Z,1017.34
2018-04-17T03:07:07.671Z,1017.32
2018-04-17T03:08:07.642Z,1017.33
2018-04-17T03:09:07.629Z,1017.33
2018-04-17T03:10:07.606Z,1017.30
2018-04-17T03:11:07.585Z,1017.32
2018-04-17T03:12:07.573Z,1017.35
2018-04-17T03:13:07.546Z,1017.32
2018-04-17T03:14:07.529Z,1017.31
2018-04-17T03:15:07.511Z,1017.29
2018-04-17T03:16:07.492Z,1017.35
2018-04-17T03:17:07.476Z,1017.32
2018-04-17T03:18:07.454Z,1017.29
2018-04-17T03:19:07.441Z,1017.34
2018-04-17T03:20:07.428Z,1017.34
2018-04-17T03:21:07.559Z,1017.39
2018-04-17T03:22:07.382Z,1017.37
2018-04-17T03:23:07.362Z,1017.34
2018-04-17T03:24:07.352Z,1017.38
2018-04-17T03:25:07.324Z,1017.39
2018-04-17T03:26:07.309Z,1017.35
2018-04-17T03:27:07.289Z,1017.40
2018-04-17T03:28:07.271Z,1017.38
2018-04-17T03:29:07.253Z,1017.38
2018-04-17T03:30:07.245Z,1017.38
2018-04-17T03:31:07.213Z,1017.40
2018-04-17T03:32:07.201Z,1017.41
2018-04-17T03:33:07.177Z,1017.43
2018-04-17T03:34:07.166Z,1017.40
2018-04-17T03:35:07.140Z,1017.38
2018-04-17T03:36:07.127Z,1017.36
2018-04-17T03:37:07.146Z,1017.38
2018-04-17T03:38:07.086Z,1017.40
2018-04-17T03:40:03.526Z,1017.37
2018-04-17T03:41:00.678Z,1017.39
2018-04-17T03:42:00.663Z,1017.38
2018-04-17T03:43:00.641Z,1017.40
2018-04-17T03:44:00.625Z,1017.41
2018-04-17T03:45:00.605Z,1017.39
2018-04-17T03:46:00.588Z,1017.34
2018-04-17T03:47:00.565Z,1017.35
2018-04-17T03:48:00.543Z,1017.37
2018-04-17T03:49:00.527Z,1017.36
2018-04-17T03:50:00.507Z,1017.36
2018-04-17T03:51:00.488Z,1017.35
2018-04-17T03:52:00.473Z,1017.34
2018-04-17T03:53:00.454Z,1017.35
2018-04-17T03:54:00.443Z,1017.36
2018-04-17T03:55:00.433Z,1017.34
2018-04-17T03:56:00.393Z,1017.37
2018-04-17T03:57:00.377Z,1017.33
2018-04-17T03:58:00.358Z,1017.36
2018-04-17T03:59:00.335Z,1017.36
2018-04-17T04:00:00.334Z,1017.35
2018-04-17T04:01:00.297Z,1017.33
2018-04-17T04:02:00.294Z,1017.41
2018-04-17T04:03:00.269Z,1017.38
2018-04-17T04:04:00.242Z,1017.37
2018-04-17T04:05:00.223Z,1017.36
2018-04-17T04:06:00.207Z,1017.38
2018-04-17T04:07:00.185Z,1017.33
2018-04-17T04:08:00.166Z,1017.35
2018-04-17T04:09:00.147Z,1017.38
2018-04-17T04:10:00.140Z,1017.39
2018-04-17T04:11:00.112Z,1017.40
2018-04-17T04:12:00.091Z,1017.41
2018-04-17T04:13:00.088Z,1017.43
2018-04-17T04:14:00.055Z,1017.49
2018-04-17T04:15:00.046Z,1017.47
2018-04-17T04:16:00.016Z,1017.46
2018-04-17T04:16:59.996Z,1017.49
2018-04-17T04:17:59.980Z,1017.53
2018-04-17T04:19:00.033Z,1017.53
2018-04-17T04:19:59.953Z,1017.53
2018-04-17T04:20:59.920Z,1017.50
2018-04-17T04:21:59.903Z,1017.52
2018-04-17T04:22:59.881Z,1017.55
2018-04-17T04:23:59.891Z,1017.53
2018-04-17T04:24:59.844Z,1017.55
2018-04-17T04:25:59.829Z,1017.58
2018-04-17T04:26:59.809Z,1017.59
2018-04-17T04:27:59.789Z,1017.55
2018-04-17T04:28:59.777Z,1017.58
2018-04-17T04:29:59.763Z,1017.60
2018-04-17T04:30:59.735Z,1017.64
2018-04-17T04:31:59.713Z,1017.63
2018-04-17T04:32:59.693Z,1017.65
2018-04-17T04:33:59.678Z,1017.69
2018-04-17T04:34:59.658Z,1017.69
2018-04-17T04:35:59.649Z,1017.70
2018-04-17T04:36:59.618Z,1017.72
2018-04-17T04:37:59.617Z,1017.77
2018-04-17T04:38:59.579Z,1017.77
2018-04-17T04:39:59.569Z,1017.79
2018-04-17T04:40:59.555Z,1017.75
2018-04-17T04:41:59.526Z,1017.80
2018-04-17T04:42:59.508Z,1017.76
2018-04-17T04:43:59.488Z,1017.76
2018-04-17T04:44:59.472Z,1017.81
2018-04-17T04:45:59.564Z,1017.79
2018-04-17T04:46:59.441Z,1017.81
2018-04-17T04:47:59.418Z,1017.83
2018-04-17T04:48:59.499Z,1017.85
2018-04-17T04:49:59.377Z,1017.89
2018-04-17T04:50:59.357Z,1017.89
2018-04-17T04:51:59.389Z,1017.93
2018-04-17T04:52:59.318Z,1017.93
2018-04-17T04:53:59.299Z,1017.91
2018-04-17T04:54:59.281Z,1017.95
2018-04-17T04:55:59.266Z,1017.97
2018-04-17T04:56:59.246Z,1017.97
2018-04-17T04:57:59.228Z,1017.99
2018-04-17T04:58:59.207Z,1018.00
2018-04-17T04:59:59.188Z,1018.03
2018-04-17T05:00:59.168Z,1018.04
2018-04-17T05:01:59.153Z,1018.03
2018-04-17T05:02:59.131Z,1018.01
2018-04-17T05:03:59.114Z,1018.05
2018-04-17T05:04:59.094Z,1018.06
2018-04-17T05:05:59.075Z,1018.07
2018-04-17T05:06:59.067Z,1018.07
2018-04-17T05:07:59.139Z,1018.16
2018-04-17T05:08:59.024Z,1018.12
2018-04-17T05:09:58.999Z,1018.11
2018-04-17T05:10:59.025Z,1018.18
2018-04-17T05:11:58.964Z,1018.14
2018-04-17T05:12:58.943Z,1018.21
2018-04-17T05:13:58.937Z,1018.22
2018-04-17T05:14:58.918Z,1018.23
2018-04-17T05:15:58.889Z,1018.24
2018-04-17T05:16:58.876Z,1018.26
2018-04-17T05:17:58.855Z,1018.24
2018-04-17T05:18:58.835Z,1018.30
2018-04-17T05:19:58.834Z,1018.33
2018-04-17T05:20:58.800Z,1018.32
2018-04-17T05:21:58.780Z,1018.40
2018-04-17T05:22:58.767Z,1018.38
2018-04-17T05:23:58.766Z,1018.37
2018-04-17T05:24:58.725Z,1018.43
2018-04-17T05:25:58.706Z,1018.46
2018-04-17T05:26:58.705Z,1018.46
2018-04-17T05:27:58.676Z,1018.52
2018-04-17T05:28:58.654Z,1018.54
2018-04-17T05:29:58.634Z,1018.57
2018-04-17T05:30:58.612Z,1018.59
2018-04-17T05:31:58.596Z,1018.65
2018-04-17T05:32:58.578Z,1018.66
2018-04-17T05:33:58.572Z,1018.69
2018-04-17T05:34:58.551Z,1018.70
2018-04-17T05:35:58.526Z,1018.76
2018-04-17T05:36:58.505Z,1018.75
2018-04-17T05:37:58.491Z,1018.78
2018-04-17T05:38:58.472Z,1018.82
2018-04-17T05:39:58.453Z,1018.88
2018-04-17T05:40:58.450Z,1018.87
2018-04-17T05:41:58.426Z,1018.88
2018-04-17T05:42:58.401Z,1018.98
2018-04-17T05:43:58.382Z,1019.09
2018-04-17T05:44:58.372Z,1019.25
2018-04-17T05:45:58.354Z,1019.27
2018-04-17T05:46:58.326Z,1019.32
2018-04-17T05:47:58.318Z,1019.35
2018-04-17T05:48:58.291Z,1019.35
2018-04-17T05:49:58.275Z,1019.25
2018-04-17T05:50:58.288Z,1019.27
2018-04-17T05:51:58.244Z,1019.39
2018-04-17T05:52:58.229Z,1019.39
2018-04-17T05:53:58.233Z,1019.40
2018-04-17T05:54:58.194Z,1019.41
2018-04-17T05:55:58.205Z,1019.49
2018-04-17T05:56:58.161Z,1019.52
2018-04-17T05:57:58.148Z,1019.61
2018-04-17T05:58:58.130Z,1019.64
2018-04-17T05:59:58.113Z,1019.68
2018-04-17T06:00:58.104Z,1019.64
2018-04-17T06:01:58.090Z,1019.52
2018-04-17T06:02:58.069Z,1019.58
2018-04-17T06:03:58.053Z,1019.72
2018-04-17T06:04:58.050Z,1019.69
2018-04-17T06:05:58.028Z,1019.65
2018-04-17T06:06:58.065Z,1019.67
2018-04-17T06:07:57.995Z,1019.68
2018-04-17T06:08:57.988Z,1019.70
2018-04-17T06:09:57.979Z,1019.73
2018-04-17T06:10:57.955Z,1019.72
2018-04-17T06:11:57.951Z,1019.72
2018-04-17T06:12:57.932Z,1019.73
2018-04-17T06:13:57.912Z,1019.77
2018-04-17T06:14:57.899Z,1019.81
2018-04-17T06:15:57.896Z,1019.76
2018-04-17T06:16:57.874Z,1019.75
2018-04-17T06:17:57.863Z,1019.72
2018-04-17T06:18:57.848Z,1019.82
2018-04-17T06:19:57.835Z,1019.86
2018-04-17T06:20:57.834Z,1019.86
2018-04-17T06:21:57.819Z,1019.89
2018-04-17T06:22:57.802Z,1019.76
2018-04-17T06:23:57.802Z,1019.72
2018-04-17T06:24:57.775Z,1019.66
2018-04-17T06:25:57.776Z,1019.65
2018-04-17T06:26:57.751Z,1019.75
2018-04-17T06:27:57.739Z,1019.84
2018-04-17T06:28:57.728Z,1019.91
2018-04-17T06:29:57.721Z,1019.89
2018-04-17T06:30:57.707Z,1019.93
2018-04-17T06:31:57.697Z,1019.96
2018-04-17T06:32:57.682Z,1019.86
2018-04-17T06:33:57.711Z,1019.78
2018-04-17T06:34:57.696Z,1019.70
2018-04-17T06:35:57.649Z,1019.72
2018-04-17T06:36:57.639Z,1019.80
2018-04-17T06:37:57.635Z,1019.73
2018-04-17T06:38:57.620Z,1019.71
2018-04-17T06:39:57.606Z,1019.73
2018-04-17T06:40:57.596Z,1019.70
2018-04-17T06:41:57.606Z,1019.75
2018-04-17T06:42:57.574Z,1019.84
2018-04-17T06:43:57.565Z,1019.88
2018-04-17T06:44:57.554Z,1019.91
2018-04-17T06:45:57.541Z,1019.77
2018-04-17T06:46:57.547Z,1019.71
2018-04-17T06:47:57.516Z,1019.70
2018-04-17T06:48:57.506Z,1019.66
2018-04-17T06:49:57.505Z,1019.67
2018-04-17T06:50:57.488Z,1019.68
2018-04-17T06:51:57.474Z,1019.65
2018-04-17T06:52:57.468Z,1019.67
2018-04-17T06:53:57.453Z,1019.62
2018-04-17T06:54:57.439Z,1019.63
2018-04-17T06:55:57.426Z,1019.69
2018-04-17T06:56:57.414Z,1019.62
2018-04-17T06:57:57.426Z,1019.62
2018-04-17T06:58:57.392Z,1019.65
2018-04-17T06:59:57.383Z,1019.66
2018-04-17T07:00:57.366Z,1019.61
2018-04-17T07:01:57.354Z,1019.67
2018-04-17T07:02:57.479Z,1019.70
2018-04-17T07:03:57.331Z,1019.80
2018-04-17T07:04:57.316Z,1019.96
2018-04-17T07:05:57.312Z,1019.99
2018-04-17T07:06:57.286Z,1019.87
2018-04-17T07:07:57.282Z,1019.78
2018-04-17T07:08:57.271Z,1019.79
2018-04-17T07:09:57.252Z,1019.82
2018-04-17T07:10:57.245Z,1019.81
2018-04-17T07:11:57.224Z,1019.80
2018-04-17T07:12:57.220Z,1019.80
2018-04-17T07:13:57.198Z,1019.80
2018-04-17T07:14:57.185Z,1019.83
2018-04-17T07:15:57.177Z,1019.88
2018-04-17T07:16:57.198Z,1019.95
2018-04-17T07:17:57.154Z,1019.95
2018-04-17T07:18:57.151Z,1019.96
2018-04-17T07:19:57.124Z,1019.91
2018-04-17T07:20:57.116Z,1019.96
2018-04-17T07:21:57.105Z,1020.04
2018-04-17T07:22:57.086Z,1020.06
2018-04-17T07:23:57.073Z,1020.06
2018-04-17T07:24:57.061Z,1020.06
2018-04-17T07:25:57.046Z,1020.04
2018-04-17T07:26:57.094Z,1020.04
2018-04-17T07:27:57.025Z,1019.99
2018-04-17T07:28:57.015Z,1020.04
2018-04-17T07:29:59.683Z,1020.06
2018-04-17T07:31:42.477Z,1020.11
2018-04-17T07:32:42.335Z,1020.05
2018-04-17T07:33:42.318Z,1020.08
2018-04-17T07:34:42.323Z,1020.16
2018-04-17T07:35:42.289Z,1020.12
2018-04-17T07:36:42.280Z,1020.14
2018-04-17T07:37:42.274Z,1020.12
2018-04-17T07:38:42.260Z,1020.20
2018-04-17T07:39:42.250Z,1020.19
2018-04-17T07:40:42.250Z,1020.18
2018-04-17T07:41:42.229Z,1020.22
2018-04-17T07:42:42.227Z,1020.20
2018-04-17T07:43:42.208Z,1020.42
2018-04-17T07:44:42.205Z,1020.31
2018-04-17T07:45:42.192Z,1020.38
2018-04-17T07:46:42.197Z,1020.37
2018-04-17T07:47:42.179Z,1020.41
2018-04-17T07:48:42.159Z,1020.40
2018-04-17T07:49:42.148Z,1020.45
2018-04-17T07:50:42.150Z,1020.50
2018-04-17T07:51:42.145Z,1020.33
2018-04-17T07:52:42.120Z,1020.23
2018-04-17T07:53:42.113Z,1020.32
2018-04-17T07:54:42.111Z,1020.31
2018-04-17T07:55:42.153Z,1020.25
2018-04-17T07:56:42.087Z,1020.25
2018-04-17T07:57:42.091Z,1020.21
2018-04-17T07:58:42.124Z,1020.19
2018-04-17T07:59:42.058Z,1020.20
2018-04-17T08:00:42.057Z,1020.31
2018-04-17T08:01:42.040Z,1020.34
2018-04-17T08:02:42.037Z,1020.23
2018-04-17T08:03:42.025Z,1020.30
2018-04-17T08:04:42.022Z,1020.34
2018-04-17T08:05:42.009Z,1020.36
2018-04-17T08:06:41.998Z,1020.35
2018-04-17T08:07:41.988Z,1020.41
2018-04-17T08:08:41.981Z,1020.41
2018-04-17T08:09:41.980Z,1020.37
2018-04-17T08:10:41.972Z,1020.36
2018-04-17T08:11:42.022Z,1020.45
2018-04-17T08:12:41.957Z,1020.58
2018-04-17T08:13:41.937Z,1020.58
2018-04-17T08:14:41.928Z,1020.57
2018-04-17T08:15:41.921Z,1020.60
2018-04-17T08:16:41.919Z,1020.54
2018-04-17T08:17:41.904Z,1020.49
2018-04-17T08:18:41.894Z,1020.46
2018-04-17T08:19:41.890Z,1020.47
2018-04-17T08:20:41.878Z,1020.47
2018-04-17T08:21:41.970Z,1020.46
2018-04-17T08:22:41.873Z,1020.54
2018-04-17T08:23:41.864Z,1020.59
2018-04-17T08:24:41.915Z,1020.53
2018-04-17T08:25:41.838Z,1020.44
2018-04-17T08:26:41.834Z,1020.43
2018-04-17T08:27:41.837Z,1020.44
2018-04-17T08:28:41.818Z,1020.46
2018-04-17T08:29:41.815Z,1020.43
2018-04-17T08:30:41.798Z,1020.42
2018-04-17T08:31:41.793Z,1020.43
2018-04-17T08:32:41.792Z,1020.51
2018-04-17T08:33:41.778Z,1020.50
2018-04-17T08:34:41.776Z,1020.59
2018-04-17T08:35:41.762Z,1020.57
2018-04-17T08:36:41.753Z,1020.54
2018-04-17T08:37:41.746Z,1020.60
2018-04-17T08:38:41.743Z,1020.57
2018-04-17T08:39:41.724Z,1020.60
2018-04-17T08:40:41.718Z,1020.63
2018-04-17T08:41:41.711Z,1020.70
2018-04-17T08:42:41.711Z,1020.65
2018-04-17T08:43:41.697Z,1020.61
2018-04-17T08:44:41.692Z,1020.51
2018-04-17T08:45:41.676Z,1020.56
2018-04-17T08:46:41.667Z,1020.52
2018-04-17T08:47:41.662Z,1020.55
2018-04-17T08:48:41.651Z,1020.50
2018-04-17T08:49:41.644Z,1020.61
2018-04-17T08:50:41.652Z,1020.50
2018-04-17T08:51:41.626Z,1020.54
2018-04-17T08:52:41.620Z,1020.53
2018-04-17T08:53:41.618Z,1020.57
2018-04-17T08:54:41.600Z,1020.62
2018-04-17T08:55:41.597Z,1020.71
2018-04-17T08:56:41.584Z,1020.64
2018-04-17T08:57:41.581Z,1020.60
2018-04-17T08:58:41.579Z,1020.64
2018-04-17T08:59:41.613Z,1020.61
2018-04-17T09:00:41.554Z,1020.66
2018-04-17T09:01:41.546Z,1020.72
2018-04-17T09:02:41.548Z,1020.74
2018-04-17T09:03:41.532Z,1020.74
2018-04-17T09:04:41.524Z,1020.71
2018-04-17T09:05:41.529Z,1020.72
2018-04-17T09:06:41.511Z,1020.82
2018-04-17T09:07:41.516Z,1020.77
2018-04-17T09:08:41.514Z,1020.76
2018-04-17T09:09:41.491Z,1020.67
2018-04-17T09:10:41.483Z,1020.77
2018-04-17T09:11:41.485Z,1020.71
2018-04-17T09:12:41.472Z,1020.68
2018-04-17T09:13:41.471Z,1020.68
2018-04-17T09:14:41.461Z,1020.68
2018-04-17T09:15:41.458Z,1020.61
2018-04-17T09:16:41.463Z,1020.63
2018-04-17T09:17:41.448Z,1020.66
2018-04-17T09:18:41.440Z,1020.66
2018-04-17T09:19:41.440Z,1020.65
2018-04-17T09:20:41.435Z,1020.83
2018-04-17T09:21:41.432Z,1020.70
2018-04-17T09:22:41.423Z,1020.59
2018-04-17T09:23:41.418Z,1020.77
2018-04-17T09:24:41.414Z,1020.73
2018-04-17T09:25:41.413Z,1020.57
2018-04-17T09:26:41.422Z,1020.66
2018-04-17T09:27:41.402Z,1020.73
2018-04-17T09:28:41.409Z,1020.66
2018-04-17T09:29:41.396Z,1020.66
2018-04-17T09:30:41.390Z,1020.64
2018-04-17T09:31:41.399Z,1020.63
2018-04-17T09:32:41.382Z,1020.59
2018-04-17T09:33:41.382Z,1020.59
2018-04-17T09:34:41.377Z,1020.59
2018-04-17T09:35:41.373Z,1020.56
2018-04-17T09:36:41.374Z,1020.65
2018-04-17T09:37:41.368Z,1020.60
2018-04-17T09:38:41.366Z,1020.65
2018-04-17T09:39:41.366Z,1020.64
2018-04-17T09:40:41.373Z,1020.66
2018-04-17T09:41:41.359Z,1020.61
2018-04-17T09:42:41.356Z,1020.55
2018-04-17T09:43:41.363Z,1020.55
2018-04-17T09:44:41.377Z,1020.58
2018-04-17T09:45:41.356Z,1020.60
2018-04-17T09:46:41.354Z,1020.64
2018-04-17T09:47:41.349Z,1020.67
2018-04-17T09:48:41.349Z,1020.70
2018-04-17T09:49:41.348Z,1020.64
2018-04-17T09:50:41.353Z,1020.59
2018-04-17T09:51:41.349Z,1020.58
2018-04-17T09:52:41.345Z,1020.61
2018-04-17T09:53:41.346Z,1020.47
2018-04-17T09:54:41.345Z,1020.62
2018-04-17T09:55:41.346Z,1020.62
2018-04-17T09:56:41.346Z,1020.66
2018-04-17T09:57:41.368Z,1020.69
2018-04-17T09:58:41.345Z,1020.72
2018-04-17T09:59:41.349Z,1020.69
2018-04-17T10:00:41.353Z,1020.71
2018-04-17T10:01:41.357Z,1020.67
2018-04-17T10:02:41.352Z,1020.67
2018-04-17T10:03:41.353Z,1020.70
2018-04-17T10:04:41.358Z,1020.66
2018-04-17T10:05:41.361Z,1020.71
2018-04-17T10:06:41.362Z,1020.66
2018-04-17T10:07:41.366Z,1020.65
2018-04-17T10:08:41.362Z,1020.67
2018-04-17T10:09:41.361Z,1020.67
2018-04-17T10:10:41.463Z,1020.67
2018-04-17T10:11:41.371Z,1020.63
2018-04-17T10:12:41.371Z,1020.69
2018-04-17T10:13:41.364Z,1020.65
2018-04-17T10:14:41.365Z,1020.66
2018-04-17T10:15:41.378Z,1020.63
2018-04-17T10:16:41.371Z,1020.65
2018-04-17T10:17:41.384Z,1020.63
2018-04-17T10:18:41.371Z,1020.57
2018-04-17T10:19:41.384Z,1020.60
2018-04-17T10:20:41.376Z,1020.58
2018-04-17T10:21:41.382Z,1020.63
2018-04-17T10:22:41.386Z,1020.66
2018-04-17T10:23:41.384Z,1020.71
2018-04-17T10:24:41.380Z,1020.74
2018-04-17T10:25:41.393Z,1020.72
2018-04-17T10:26:41.387Z,1020.66
2018-04-17T10:27:41.492Z,1020.68
2018-04-17T10:28:41.400Z,1020.69
2018-04-17T10:29:41.390Z,1020.62
2018-04-17T10:30:41.393Z,1020.63
2018-04-17T10:31:41.396Z,1020.65
2018-04-17T10:32:41.424Z,1020.65
2018-04-17T10:33:41.400Z,1020.67
2018-04-17T10:34:41.402Z,1020.62
2018-04-17T10:35:41.406Z,1020.66
2018-04-17T10:36:41.405Z,1020.59
2018-04-17T10:37:41.411Z,1020.52
2018-04-17T10:38:41.411Z,1020.57
2018-04-17T10:39:41.468Z,1020.69
2018-04-17T10:40:41.412Z,1020.70
2018-04-17T10:41:41.428Z,1020.65
2018-04-17T10:42:41.452Z,1020.74
2018-04-17T10:43:41.418Z,1020.75
2018-04-17T10:44:41.426Z,1020.73
2018-04-17T10:45:41.423Z,1020.73
2018-04-17T10:46:41.422Z,1020.74
2018-04-17T10:47:41.432Z,1020.69
2018-04-17T10:48:41.427Z,1020.72
2018-04-17T10:49:41.427Z,1020.71
2018-04-17T10:50:41.427Z,1020.67
2018-04-17T10:51:41.434Z,1020.75
2018-04-17T10:52:41.436Z,1020.74
2018-04-17T10:53:41.432Z,1020.75
2018-04-17T10:54:41.444Z,1020.76
2018-04-17T10:55:41.437Z,1020.80
2018-04-17T10:56:41.437Z,1020.34
2018-04-17T10:57:41.439Z,1020.85
2018-04-17T10:58:41.446Z,1020.46
2018-04-17T10:59:41.492Z,1020.66
2018-04-17T11:00:41.454Z,1020.66
2018-04-17T11:01:41.447Z,1020.97
2018-04-17T11:02:41.459Z,1020.90
2018-04-17T11:03:41.453Z,1020.95
2018-04-17T11:04:41.452Z,1020.88
2018-04-17T11:05:41.458Z,1020.92
2018-04-17T11:06:41.459Z,1021.02
2018-04-17T11:07:41.467Z,1021.04
2018-04-17T11:08:41.458Z,1021.08
2018-04-17T11:09:41.461Z,1021.02
2018-04-17T11:10:41.464Z,1021.02
2018-04-17T11:11:41.467Z,1021.04
2018-04-17T11:12:41.481Z,1021.01
2018-04-17T11:13:41.479Z,1021.00
2018-04-17T11:14:41.468Z,1020.97
2018-04-17T11:15:41.469Z,1021.06
2018-04-17T11:16:41.474Z,1020.98
2018-04-17T11:17:41.483Z,1021.00
2018-04-17T11:18:41.492Z,1021.09
2018-04-17T11:19:41.493Z,1021.04
2018-04-17T11:20:41.485Z,1021.07
2018-04-17T11:21:41.487Z,1021.08
2018-04-17T11:22:41.589Z,1020.98
2018-04-17T11:23:41.494Z,1021.06
2018-04-17T11:24:41.501Z,1020.98
2018-04-17T11:25:41.496Z,1021.11
2018-04-17T11:26:41.495Z,1021.30
2018-04-17T11:27:41.497Z,1021.42
2018-04-17T11:28:41.508Z,1021.50
2018-04-17T11:29:41.503Z,1021.42
2018-04-17T11:30:41.503Z,1021.54
2018-04-17T11:31:41.504Z,1021.64
2018-04-17T11:32:41.537Z,1021.45
2018-04-17T11:33:41.512Z,1021.53
2018-04-17T11:34:41.532Z,1021.47
2018-04-17T11:35:41.513Z,1021.45
2018-04-17T11:36:41.512Z,1021.52
2018-04-17T11:37:41.512Z,1021.49
2018-04-17T11:38:41.522Z,1021.41
2018-04-17T11:39:41.849Z,1021.34
2018-04-17T11:40:41.515Z,1021.06
2018-04-17T11:41:41.517Z,1020.94
2018-04-17T11:42:41.528Z,1020.92
2018-04-17T11:43:41.521Z,1020.76
2018-04-17T11:44:41.518Z,1020.68
2018-04-17T11:45:41.529Z,1020.71
2018-04-17T11:46:41.521Z,1020.73
2018-04-17T11:47:41.521Z,1020.62
2018-04-17T11:48:41.565Z,1020.47
2018-04-17T11:49:41.521Z,1020.26
2018-04-17T11:50:41.522Z,1020.20
2018-04-17T11:51:41.520Z,1020.14
2018-04-17T11:52:41.532Z,1020.13
2018-04-17T11:53:41.522Z,1020.14
2018-04-17T11:54:41.516Z,1020.15
2018-04-17T11:55:41.566Z,1020.09
2018-04-17T11:56:41.541Z,1020.09
2018-04-17T11:57:41.514Z,1020.14
2018-04-17T11:58:41.521Z,1020.11
2018-04-17T11:59:41.508Z,1020.07
2018-04-17T12:00:41.510Z,1019.97
2018-04-17T12:01:41.504Z,1020.01
2018-04-17T12:02:41.502Z,1020.03
2018-04-17T12:03:41.501Z,1020.04
2018-04-17T12:04:41.503Z,1020.07
2018-04-17T12:05:41.498Z,1020.04
2018-04-17T12:06:41.490Z,1020.04